createdAt,value
2022-10-09T00:01:10.154Z,77.73
2022-10-09T00:03:38.131Z,77.97
2022-10-09T00:06:06.224Z,78.05
2022-10-09T00:08:35.053Z,78.12
2022-10-09T00:11:06.212Z,78.38
2022-10-09T00:13:32.614Z,78.24
2022-10-09T00:16:03.983Z,78.44
2022-10-09T00:18:30.619Z,78.45
2022-10-09T00:20:57.011Z,78.69
2022-10-09T00:23:23.708Z,78.64
2022-10-09T00:25:58.125Z,78.13
2022-10-09T00:28:27.242Z,77.84
2022-10-09T00:30:54.121Z,77.96
2022-10-09T00:33:20.692Z,77.90
2022-10-09T00:35:48.115Z,78.02
2022-10-09T00:38:14.558Z,78.01
2022-10-09T00:40:41.397Z,78.28
2022-10-09T00:43:18.860Z,78.54
2022-10-09T00:45:53.702Z,78.66
2022-10-09T00:48:20.989Z,78.50
2022-10-09T00:50:58.057Z,78.98
2022-10-09T00:53:28.784Z,79.08
2022-10-09T00:55:55.811Z,78.52
2022-10-09T00:58:23.499Z,78.03
2022-10-09T01:00:50.121Z,78.01
2022-10-09T01:03:16.721Z,77.98
2022-10-09T01:06:24.540Z,77.79
2022-10-09T01:09:24.370Z,77.91
2022-10-09T01:12:08.970Z,77.83
2022-10-09T01:14:48.472Z,78.15
2022-10-09T01:17:25.155Z,78.16
2022-10-09T01:20:16.390Z,78.05
2022-10-09T01:23:01.112Z,78.53
2022-10-09T01:25:45.254Z,78.45
2022-10-09T01:28:14.564Z,78.05
2022-10-09T01:30:42.196Z,78.62
2022-10-09T01:33:10.974Z,78.59
2022-10-09T01:35:38.536Z,78.83
2022-10-09T01:38:06.028Z,78.87
2022-10-09T01:40:32.597Z,79.35
2022-10-09T01:42:59.420Z,79.91
2022-10-09T01:45:26.039Z,80.11
2022-10-09T01:47:52.464Z,79.81
2022-10-09T01:50:30.279Z,80.07
2022-10-09T01:53:01.584Z,80.81
2022-10-09T01:55:39.170Z,80.68
2022-10-09T01:58:15.410Z,80.62
2022-10-09T02:00:56.848Z,80.25
2022-10-09T02:03:26.107Z,80.03
2022-10-09T02:05:55.520Z,79.93
2022-10-09T02:08:23.351Z,79.56
2022-10-09T02:10:55.082Z,79.30
2022-10-09T02:13:21.963Z,79.79
2022-10-09T02:15:53.387Z,80.05
2022-10-09T02:18:26.533Z,80.17
2022-10-09T02:20:59.442Z,79.78
2022-10-09T02:23:27.471Z,79.38
2022-10-09T02:25:54.036Z,79.62
2022-10-09T02:28:21.755Z,79.28
2022-10-09T02:30:59.586Z,79.43
2022-10-09T02:33:33.607Z,79.49
2022-10-09T02:36:00.872Z,80.15
2022-10-09T02:38:27.559Z,80.04
2022-10-09T02:40:58.272Z,80.26
2022-10-09T02:43:24.670Z,80.72
2022-10-09T02:45:51.331Z,81.08
2022-10-09T02:48:17.980Z,81.12
2022-10-09T02:50:44.325Z,80.93
2022-10-09T02:53:10.735Z,81.42
2022-10-09T02:55:37.061Z,81.40
2022-10-09T02:58:03.830Z,81.64
2022-10-09T03:00:30.242Z,81.39
2022-10-09T03:02:57.975Z,81.27
2022-10-09T03:05:24.714Z,81.24
2022-10-09T03:07:51.141Z,81.07
2022-10-09T03:10:19.420Z,81.48
2022-10-09T03:12:46.212Z,81.48
2022-10-09T03:15:14.639Z,81.85
2022-10-09T03:17:41.344Z,82.17
2022-10-09T03:20:08.343Z,82.14
2022-10-09T03:22:34.750Z,82.70
2022-10-09T03:25:01.276Z,82.58
2022-10-09T03:27:27.936Z,82.82
2022-10-09T03:29:54.627Z,82.52
2022-10-09T03:35:07.196Z,83.18
2022-10-09T03:37:33.665Z,82.88
2022-10-09T03:40:00.105Z,82.81
2022-10-09T03:42:26.531Z,82.76
2022-10-09T03:44:52.939Z,82.77
2022-10-09T03:47:19.334Z,82.37
2022-10-09T03:49:45.676Z,82.31
2022-10-09T03:52:11.997Z,82.56
2022-10-09T03:54:38.297Z,82.60
2022-10-09T03:57:04.695Z,82.61
2022-10-09T03:59:31.057Z,82.86
2022-10-09T04:01:57.461Z,82.90
2022-10-09T04:04:23.923Z,82.51
2022-10-09T04:06:50.261Z,82.61
2022-10-09T04:09:16.584Z,82.95
2022-10-09T04:11:43.253Z,82.50
2022-10-09T04:14:09.576Z,83.02
2022-10-09T04:16:35.937Z,82.57
2022-10-09T04:19:02.620Z,82.39
2022-10-09T04:21:29.340Z,82.92
2022-10-09T04:23:55.756Z,82.82
2022-10-09T04:26:22.131Z,82.89
2022-10-09T04:28:48.482Z,83.11
2022-10-09T04:31:14.997Z,82.89
2022-10-09T04:33:41.330Z,82.97
2022-10-09T04:36:08.002Z,83.10
2022-10-09T04:38:34.518Z,82.88
2022-10-09T04:41:06.588Z,82.76
2022-10-09T04:43:34.455Z,83.01
2022-10-09T04:46:05.485Z,82.76
2022-10-09T04:48:32.010Z,82.91
2022-10-09T04:50:58.345Z,83.22
2022-10-09T04:53:24.793Z,82.76
2022-10-09T04:55:51.408Z,82.76
2022-10-09T04:58:17.751Z,82.92
2022-10-09T05:00:45.726Z,83.21
2022-10-09T05:03:12.770Z,83.46
2022-10-09T05:05:39.606Z,83.03
2022-10-09T05:08:06.187Z,82.95
2022-10-09T05:10:33.915Z,82.68
2022-10-09T05:13:00.567Z,82.89
2022-10-09T05:15:27.624Z,82.91
2022-10-09T05:17:54.257Z,82.29
2022-10-09T05:20:20.663Z,81.81
2022-10-09T05:22:48.094Z,82.34
2022-10-09T05:25:15.375Z,82.35
2022-10-09T05:27:42.014Z,82.88
2022-10-09T05:30:09.627Z,82.80
2022-10-09T05:32:36.217Z,82.32
2022-10-09T05:35:02.817Z,82.66
2022-10-09T05:37:29.218Z,82.79
2022-10-09T05:39:55.540Z,82.86
2022-10-09T05:42:21.856Z,82.85
2022-10-09T05:44:48.247Z,83.05
2022-10-09T05:47:14.762Z,83.01
2022-10-09T05:49:41.118Z,82.22
2022-10-09T05:52:07.864Z,82.72
2022-10-09T05:54:34.426Z,83.05
2022-10-09T05:57:01.030Z,83.53
2022-10-09T05:59:27.420Z,83.42
2022-10-09T06:01:53.876Z,83.29
2022-10-09T06:04:24.346Z,83.46
2022-10-09T06:06:51.166Z,83.63
2022-10-09T06:09:19.917Z,83.42
2022-10-09T06:11:46.580Z,83.27
2022-10-09T06:14:13.340Z,83.37
2022-10-09T06:16:42.448Z,83.38
2022-10-09T06:19:12.525Z,83.40
2022-10-09T06:21:39.170Z,83.60
2022-10-09T06:24:06.371Z,83.53
2022-10-09T06:26:33.715Z,83.53
2022-10-09T06:29:02.120Z,82.92
2022-10-09T06:31:31.136Z,82.77
2022-10-09T06:34:01.914Z,83.59
2022-10-09T06:36:32.289Z,83.08
2022-10-09T06:39:00.654Z,83.57
2022-10-09T06:41:28.892Z,83.36
2022-10-09T06:43:57.386Z,83.18
2022-10-09T06:46:27.651Z,82.94
2022-10-09T06:48:54.436Z,82.67
2022-10-09T06:51:22.860Z,82.02
2022-10-09T06:53:54.976Z,82.44
2022-10-09T06:56:24.028Z,83.26
2022-10-09T06:58:50.787Z,83.24
2022-10-09T07:01:26.340Z,82.54
2022-10-09T07:04:17.745Z,82.30
2022-10-09T07:06:45.592Z,82.57
2022-10-09T07:09:13.171Z,82.35
2022-10-09T07:11:42.760Z,82.61
2022-10-09T07:14:10.383Z,82.85
2022-10-09T07:16:42.297Z,83.14
2022-10-09T07:19:10.043Z,82.90
2022-10-09T07:21:38.090Z,83.13
2022-10-09T07:24:06.236Z,82.65
2022-10-09T07:26:36.092Z,83.02
2022-10-09T07:29:03.517Z,82.51
2022-10-09T07:31:30.057Z,82.84
2022-10-09T07:33:57.256Z,82.75
2022-10-09T07:36:24.296Z,82.67
2022-10-09T07:38:56.460Z,82.52
2022-10-09T07:41:25.017Z,82.50
2022-10-09T07:43:51.729Z,82.75
2022-10-09T07:46:22.259Z,82.40
2022-10-09T07:48:49.768Z,81.85
2022-10-09T07:51:34.506Z,81.53
2022-10-09T07:54:01.532Z,81.39
2022-10-09T07:56:30.684Z,81.75
2022-10-09T07:58:59.722Z,81.89
2022-10-09T08:01:27.657Z,81.79
2022-10-09T08:03:54.634Z,81.49
2022-10-09T08:06:20.997Z,81.16
2022-10-09T08:08:52.486Z,81.13
2022-10-09T08:11:20.276Z,81.57
2022-10-09T08:13:47.930Z,81.90
2022-10-09T08:16:15.002Z,81.46
2022-10-09T08:18:41.401Z,81.35
2022-10-09T08:21:11.659Z,81.50
2022-10-09T08:23:38.337Z,80.76
2022-10-09T08:26:11.685Z,80.59
2022-10-09T08:28:38.028Z,81.48
2022-10-09T08:31:12.917Z,82.34
2022-10-09T08:33:39.740Z,81.71
2022-10-09T08:36:07.878Z,81.34
2022-10-09T08:38:47.121Z,81.27
2022-10-09T08:41:33.385Z,81.10
2022-10-09T08:44:13.654Z,80.50
2022-10-09T08:46:46.593Z,81.16
2022-10-09T08:49:41.191Z,80.28
2022-10-09T08:52:15.195Z,79.32
2022-10-09T08:54:41.578Z,79.21
2022-10-09T08:57:14.632Z,79.09
2022-10-09T08:59:41.723Z,79.64
2022-10-09T09:02:48.031Z,79.14
2022-10-09T09:05:33.197Z,79.18
2022-10-09T09:08:29.735Z,79.64
2022-10-09T09:11:21.597Z,80.21
2022-10-09T09:14:00.830Z,80.09
2022-10-09T09:16:49.049Z,79.91
2022-10-09T09:19:27.898Z,79.17
2022-10-09T09:21:54.236Z,79.18
2022-10-09T09:24:27.915Z,77.10
2022-10-09T09:26:56.245Z,75.28
2022-10-09T09:29:24.301Z,72.74
2022-10-09T09:31:57.199Z,71.69
2022-10-09T09:34:39.058Z,69.43
2022-10-09T09:37:05.697Z,71.55
2022-10-09T09:40:30.951Z,70.70
2022-10-09T09:42:21.560Z,71.53
2022-10-09T09:44:57.394Z,71.11
2022-10-09T09:47:35.841Z,71.20
2022-10-09T09:50:05.034Z,71.87
2022-10-09T09:52:39.768Z,72.91
2022-10-09T09:55:07.176Z,72.53
2022-10-09T09:57:42.212Z,71.82
2022-10-09T10:00:21.988Z,71.82
2022-10-09T10:02:49.566Z,72.84
2022-10-09T10:05:26.692Z,73.04
2022-10-09T10:07:54.565Z,73.06
2022-10-09T10:10:26.412Z,73.11
2022-10-09T10:12:53.100Z,72.75
2022-10-09T10:15:27.171Z,72.38
2022-10-09T10:18:12.816Z,71.06
2022-10-09T10:20:48.407Z,71.70
2022-10-09T10:23:40.795Z,71.38
2022-10-09T10:26:22.808Z,68.69
2022-10-09T10:28:56.686Z,68.23
2022-10-09T10:31:53.941Z,68.71
2022-10-09T10:34:25.081Z,67.88
2022-10-09T10:37:02.631Z,67.15
2022-10-09T10:39:39.830Z,66.17
2022-10-09T10:42:14.647Z,65.83
2022-10-09T10:44:52.030Z,65.53
2022-10-09T10:47:23.880Z,66.25
2022-10-09T10:49:50.728Z,65.82
2022-10-09T10:52:41.315Z,65.51
2022-10-09T10:55:29.341Z,65.70
2022-10-09T10:58:09.455Z,64.12
2022-10-09T11:00:41.400Z,64.63
2022-10-09T11:03:37.346Z,65.10
2022-10-09T11:06:14.306Z,64.70
2022-10-09T11:08:46.637Z,64.07
2022-10-09T11:12:02.394Z,60.06
2022-10-09T11:14:37.148Z,59.11
2022-10-09T11:17:55.045Z,57.66
2022-10-09T11:20:43.028Z,58.05
2022-10-09T11:23:37.215Z,57.28
2022-10-09T11:26:41.338Z,55.65
2022-10-09T11:29:20.374Z,56.71
2022-10-09T11:31:55.572Z,56.58
2022-10-09T11:34:37.534Z,56.65
2022-10-09T11:37:08.929Z,55.66
2022-10-09T11:39:37.418Z,55.69
2022-10-09T11:42:05.893Z,54.30
2022-10-09T11:45:00.888Z,53.27
2022-10-09T11:47:33.348Z,54.01
2022-10-09T11:50:18.320Z,54.27
2022-10-09T11:53:05.588Z,53.63
2022-10-09T11:55:34.040Z,53.09
2022-10-09T11:58:18.845Z,52.57
2022-10-09T12:00:48.221Z,52.39
2022-10-09T12:03:35.926Z,52.19
2022-10-09T12:06:15.211Z,52.48
2022-10-09T12:08:53.129Z,52.33
2022-10-09T12:11:20.111Z,51.18
2022-10-09T12:13:54.783Z,50.76
2022-10-09T12:16:54.269Z,51.07
2022-10-09T12:19:36.346Z,51.25
2022-10-09T12:22:07.811Z,49.47
2022-10-09T12:24:41.247Z,49.45
2022-10-09T12:27:08.738Z,50.67
2022-10-09T12:29:46.099Z,50.41
2022-10-09T12:32:18.290Z,50.77
2022-10-09T12:34:49.969Z,50.01
2022-10-09T12:37:22.450Z,48.91
2022-10-09T12:39:49.949Z,47.63
2022-10-09T12:42:23.206Z,46.92
2022-10-09T12:44:55.035Z,48.39
2022-10-09T12:47:27.472Z,48.66
2022-10-09T12:49:55.462Z,47.86
2022-10-09T12:52:21.839Z,48.27
2022-10-09T12:54:48.256Z,47.83
2022-10-09T12:57:16.425Z,48.55
2022-10-09T12:59:45.854Z,46.24
2022-10-09T13:02:14.111Z,47.24
2022-10-09T13:04:40.684Z,47.73
2022-10-09T13:07:18.391Z,47.17
2022-10-09T13:09:45.024Z,47.24
2022-10-09T13:12:14.329Z,47.63
2022-10-09T13:15:05.201Z,47.96
2022-10-09T13:17:34.198Z,45.84
2022-10-09T13:20:12.800Z,46.50
2022-10-09T13:22:39.820Z,47.82
2022-10-09T13:25:06.979Z,48.06
2022-10-09T13:27:37.400Z,48.25
2022-10-09T13:30:05.348Z,48.67
2022-10-09T13:32:31.753Z,48.13
2022-10-09T13:34:58.319Z,46.13
2022-10-09T13:37:26.607Z,44.93
2022-10-09T13:39:54.770Z,45.39
2022-10-09T13:42:23.228Z,46.12
2022-10-09T13:44:49.564Z,45.99
2022-10-09T13:47:19.633Z,46.30
2022-10-09T13:49:50.169Z,47.30
2022-10-09T13:52:16.662Z,47.44
2022-10-09T13:54:43.076Z,46.56
2022-10-09T13:57:09.765Z,45.95
2022-10-09T13:59:36.364Z,46.65
2022-10-09T14:02:03.286Z,46.58
2022-10-09T14:04:30.051Z,46.59
2022-10-09T14:06:56.419Z,46.45
2022-10-09T14:09:23.297Z,46.67
2022-10-09T14:11:49.638Z,47.04
2022-10-09T14:14:16.322Z,46.58
2022-10-09T14:16:42.961Z,45.18
2022-10-09T14:19:09.807Z,45.79
2022-10-09T14:21:36.123Z,46.60
2022-10-09T14:24:03.520Z,46.69
2022-10-09T14:26:30.397Z,46.54
2022-10-09T14:29:00.463Z,46.57
2022-10-09T14:31:27.407Z,47.05
2022-10-09T14:33:57.082Z,46.20
2022-10-09T14:36:23.604Z,46.03
2022-10-09T14:38:50.028Z,46.57
2022-10-09T14:41:17.285Z,47.27
2022-10-09T14:43:45.910Z,47.75
2022-10-09T14:46:17.248Z,46.90
2022-10-09T14:48:45.524Z,47.30
2022-10-09T14:51:14.262Z,47.87
2022-10-09T14:53:41.186Z,48.07
2022-10-09T14:56:11.188Z,48.06
2022-10-09T14:58:38.804Z,47.97
2022-10-09T15:01:06.388Z,47.23
2022-10-09T15:03:34.585Z,47.71
2022-10-09T15:06:05.174Z,47.46
2022-10-09T15:08:33.184Z,47.76
2022-10-09T15:11:00.142Z,48.27
2022-10-09T15:13:26.593Z,47.45
2022-10-09T15:15:58.906Z,47.81
2022-10-09T15:18:26.010Z,46.92
2022-10-09T15:20:52.448Z,45.30
2022-10-09T15:23:19.371Z,42.46
2022-10-09T15:25:53.274Z,41.36
2022-10-09T15:28:20.142Z,40.32
2022-10-09T15:30:51.421Z,40.65
2022-10-09T15:33:18.247Z,41.73
2022-10-09T15:35:45.064Z,42.06
2022-10-09T15:38:15.536Z,42.10
2022-10-09T15:40:45.218Z,43.19
2022-10-09T15:43:17.228Z,43.79
2022-10-09T15:45:43.885Z,44.76
2022-10-09T15:48:18.544Z,44.16
2022-10-09T15:50:45.914Z,45.09
2022-10-09T15:53:13.631Z,45.46
2022-10-09T15:55:41.003Z,45.32
2022-10-09T15:58:07.396Z,45.08
2022-10-09T16:00:38.948Z,45.14
2022-10-09T16:03:06.280Z,45.54
2022-10-09T16:05:43.834Z,45.97
2022-10-09T16:08:11.446Z,46.12
2022-10-09T16:10:48.795Z,46.72
2022-10-09T16:13:16.174Z,46.81
2022-10-09T16:15:44.115Z,46.38
2022-10-09T16:18:10.876Z,46.43
2022-10-09T16:20:38.244Z,46.92
2022-10-09T16:23:05.496Z,47.40
2022-10-09T16:25:32.303Z,48.02
2022-10-09T16:27:58.759Z,47.85
2022-10-09T16:30:25.792Z,48.71
2022-10-09T16:32:52.825Z,48.65
2022-10-09T16:35:19.663Z,49.07
2022-10-09T16:37:46.083Z,49.03
2022-10-09T16:40:12.929Z,49.54
2022-10-09T16:42:39.534Z,50.31
2022-10-09T16:45:06.953Z,50.71
2022-10-09T16:47:33.266Z,51.65
2022-10-09T16:49:59.968Z,52.00
2022-10-09T16:52:26.360Z,53.21
2022-10-09T16:54:55.879Z,54.12
2022-10-09T16:57:23.410Z,54.16
2022-10-09T16:59:49.897Z,54.10
2022-10-09T17:02:16.743Z,55.07
2022-10-09T17:04:43.095Z,56.47
2022-10-09T17:07:10.962Z,57.69
2022-10-09T17:09:37.988Z,58.19
2022-10-09T17:12:05.206Z,59.51
2022-10-09T17:14:31.562Z,61.00
2022-10-09T17:16:57.890Z,60.37
2022-10-09T17:19:24.932Z,60.39
2022-10-09T17:21:51.284Z,61.19
2022-10-09T17:24:18.142Z,62.27
2022-10-09T17:26:44.517Z,61.66
2022-10-09T17:29:12.963Z,62.02
2022-10-09T17:31:39.881Z,62.19
2022-10-09T17:34:06.250Z,62.09
2022-10-09T17:36:38.517Z,62.60
2022-10-09T17:39:07.696Z,62.92
2022-10-09T17:41:34.398Z,63.20
2022-10-09T17:44:01.261Z,63.92
2022-10-09T17:46:29.224Z,64.12
2022-10-09T17:48:55.845Z,64.91
2022-10-09T17:51:25.859Z,64.87
2022-10-09T17:53:53.480Z,64.94
2022-10-09T17:56:19.934Z,64.97
2022-10-09T17:58:46.248Z,65.26
2022-10-09T18:01:13.808Z,65.71
2022-10-09T18:03:41.320Z,65.49
2022-10-09T18:06:11.296Z,65.32
2022-10-09T18:08:38.088Z,65.74
2022-10-09T18:11:07.867Z,66.34
2022-10-09T18:13:37.822Z,66.61
2022-10-09T18:16:06.642Z,66.62
2022-10-09T18:18:33.299Z,66.71
2022-10-09T18:21:08.787Z,66.97
2022-10-09T18:23:35.119Z,67.14
2022-10-09T18:26:06.118Z,67.33
2022-10-09T18:28:32.479Z,67.88
2022-10-09T18:30:59.122Z,67.60
2022-10-09T18:33:25.572Z,68.01
2022-10-09T18:35:51.881Z,67.79
2022-10-09T18:38:18.284Z,68.14
2022-10-09T18:40:45.790Z,68.20
2022-10-09T18:43:12.440Z,68.28
2022-10-09T18:45:43.771Z,68.96
2022-10-09T18:48:10.173Z,68.84
2022-10-09T18:50:37.633Z,68.95
2022-10-09T18:53:04.472Z,69.24
2022-10-09T18:55:31.337Z,69.82
2022-10-09T18:57:58.399Z,70.21
2022-10-09T19:00:25.479Z,70.30
2022-10-09T19:02:51.763Z,70.23
2022-10-09T19:05:18.352Z,70.18
2022-10-09T19:07:44.758Z,70.76
2022-10-09T19:10:11.152Z,71.11
2022-10-09T19:12:37.456Z,71.40
2022-10-09T19:15:06.168Z,71.41
2022-10-09T19:17:36.006Z,71.51
2022-10-09T19:20:02.351Z,71.98
2022-10-09T19:22:29.028Z,71.80
2022-10-09T19:24:55.402Z,71.58
2022-10-09T19:27:26.354Z,71.41
2022-10-09T19:29:53.094Z,71.40
2022-10-09T19:32:23.596Z,71.66
2022-10-09T19:34:50.389Z,71.63
2022-10-09T19:37:16.807Z,72.10
2022-10-09T19:39:43.132Z,72.17
2022-10-09T19:42:09.546Z,72.35
2022-10-09T19:44:35.883Z,72.48
2022-10-09T19:47:02.195Z,73.05
2022-10-09T19:49:28.622Z,72.98
2022-10-09T19:51:55.571Z,72.84
2022-10-09T19:54:21.867Z,72.77
2022-10-09T19:56:48.179Z,72.94
2022-10-09T19:59:14.593Z,72.85
2022-10-09T20:01:41.021Z,72.86
2022-10-09T20:04:09.942Z,73.06
2022-10-09T20:06:38.548Z,72.65
2022-10-09T20:09:06.545Z,73.17
2022-10-09T20:11:33.201Z,73.55
2022-10-09T20:13:59.746Z,73.68
2022-10-09T20:16:26.621Z,73.53
2022-10-09T20:18:54.766Z,73.64
2022-10-09T20:21:21.511Z,74.10
2022-10-09T20:23:47.871Z,73.95
2022-10-09T20:26:20.686Z,74.30
2022-10-09T20:28:48.098Z,74.85
2022-10-09T20:31:17.904Z,74.42
2022-10-09T20:33:45.976Z,74.72
2022-10-09T20:36:20.293Z,74.31
2022-10-09T20:38:47.236Z,74.67
2022-10-09T20:41:15.344Z,74.91
2022-10-09T20:43:42.224Z,74.83
2022-10-09T20:46:10.595Z,74.93
2022-10-09T20:48:37.084Z,75.20
2022-10-09T20:51:03.891Z,74.90
2022-10-09T20:53:30.694Z,74.72
2022-10-09T20:56:02.095Z,75.19
2022-10-09T20:58:29.133Z,75.36
2022-10-09T21:00:55.637Z,75.40
2022-10-09T21:03:22.396Z,75.23
2022-10-09T21:05:49.226Z,75.05
2022-10-09T21:08:15.675Z,75.21
2022-10-09T21:10:46.599Z,75.08
2022-10-09T21:13:13.612Z,75.19
2022-10-09T21:15:45.093Z,74.95
2022-10-09T21:18:12.431Z,75.13
2022-10-09T21:20:40.630Z,75.22
2022-10-09T21:23:07.742Z,75.20
2022-10-09T21:25:34.516Z,75.30
2022-10-09T21:28:01.426Z,75.04
2022-10-09T21:30:28.591Z,74.84
2022-10-09T21:32:55.937Z,75.14
2022-10-09T21:35:23.548Z,75.27
2022-10-09T21:37:50.645Z,75.78
2022-10-09T21:40:17.885Z,75.64
2022-10-09T21:42:44.450Z,75.12
2022-10-09T21:45:10.984Z,74.83
2022-10-09T21:47:37.300Z,75.08
2022-10-09T21:50:04.008Z,75.15
2022-10-09T21:52:30.366Z,75.68
2022-10-09T21:54:56.742Z,75.84
2022-10-09T21:57:23.031Z,75.70
2022-10-09T21:59:49.432Z,75.58
2022-10-09T22:02:15.750Z,75.24
2022-10-09T22:04:42.159Z,75.88
2022-10-09T22:07:08.581Z,75.79
2022-10-09T22:09:34.985Z,75.47
2022-10-09T22:12:01.272Z,75.51
2022-10-09T22:14:27.579Z,75.74
2022-10-09T22:16:53.972Z,75.76
2022-10-09T22:19:20.416Z,76.22
2022-10-09T22:21:48.273Z,76.08
2022-10-09T22:24:14.599Z,75.70
2022-10-09T22:26:41.104Z,75.39
2022-10-09T22:29:07.768Z,75.60
2022-10-09T22:31:34.158Z,75.72
2022-10-09T22:34:02.279Z,75.88
2022-10-09T22:36:31.818Z,75.78
2022-10-09T22:39:00.340Z,75.70
2022-10-09T22:41:28.116Z,75.80
2022-10-09T22:43:57.186Z,75.84
2022-10-09T22:46:32.535Z,75.97
2022-10-09T22:48:59.399Z,76.18
2022-10-09T22:51:27.656Z,76.59
2022-10-09T22:53:55.624Z,76.53
2022-10-09T22:56:24.700Z,76.13
2022-10-09T22:58:53.078Z,76.52
2022-10-09T23:01:29.933Z,76.44
2022-10-09T23:04:01.959Z,76.21
2022-10-09T23:06:28.657Z,75.95
2022-10-09T23:08:55.665Z,76.18
2022-10-09T23:11:23.218Z,76.33
2022-10-09T23:13:54.792Z,76.38
2022-10-09T23:16:21.939Z,76.57
2022-10-09T23:18:48.539Z,77.06
2022-10-09T23:21:18.133Z,76.76
2022-10-09T23:23:45.919Z,76.81
2022-10-09T23:26:27.523Z,76.43
2022-10-09T23:28:59.645Z,76.23
2022-10-09T23:31:26.873Z,76.26
2022-10-09T23:33:54.136Z,76.27
2022-10-09T23:36:23.011Z,76.54
2022-10-09T23:38:49.864Z,76.68
2022-10-09T23:41:23.495Z,76.75
2022-10-09T23:43:50.786Z,76.92
2022-10-09T23:46:20.479Z,76.50
2022-10-09T23:48:48.106Z,76.48
2022-10-09T23:51:15.193Z,76.53
2022-10-09T23:53:42.510Z,76.72
2022-10-09T23:56:14.707Z,76.76
2022-10-09T23:58:41.016Z,76.73
